Terminal Aerodrome Forecast
Issued by NWS Honolulu, HI

Home | Current Version | Previous Version | Text Only | Print | Product List | Glossary On
Versions: 1 2 3 4 5 6 7 8 9 10 11 12 13 14 15 16 17 18 19 20 21 22 23 24 25 26 27 28 29 30 31 32 33 34 35 36 37 38 39 40 41 42 43 44 45 46 47 48 49
000
FTPA31 PHFO 040911 AAA
TAFHNL
TAF AMD
PHNL 040911Z 0409/0512 34004KT P6SM FEW025 BKN150
     FM042000 17010KT P6SM VCSH SCT025 BKN050 OVC150
      TEMPO 0422/0502 5SM -SHRA BKN025
     FM050400 14007KT P6SM VCSH SCT020 BKN050 OVC150=

USA.gov is the U.S. government's official web portal to all federal, state and local government web resources and services.